sensor_id;sensor_type;location;lat;lon;timestamp;pressure;altitude;pressure_sealevel;temperature;humidity
47240;BME280;32978;53.586;10.052;2023-01-29T00:01:29;102667.03;;;1.52;100.00
47240;BME280;32978;53.586;10.052;2023-01-29T00:06:26;102665.75;;;1.61;100.00
47240;BME280;32978;53.586;10.052;2023-01-29T00:11:22;102654.78;;;1.49;100.00
47240;BME280;32978;53.586;10.052;2023-01-29T00:16:20;102651.66;;;1.52;100.00
47240;BME280;32978;53.586;10.052;2023-01-29T00:21:18;102643.78;;;1.51;100.00
47240;BME280;32978;53.586;10.052;2023-01-29T00:26:15;102632.16;;;1.57;100.00
47240;BME280;32978;53.586;10.052;2023-01-29T00:31:15;102617.88;;;1.56;100.00
47240;BME280;32978;53.586;10.052;2023-01-29T00:36:14;102603.56;;;1.56;100.00
47240;BME280;32978;53.586;10.052;2023-01-29T00:41:13;102603.94;;;1.59;100.00
47240;BME280;32978;53.586;10.052;2023-01-29T00:46:28;102608.91;;;1.62;100.00
47240;BME280;32978;53.586;10.052;2023-01-29T00:51:25;102617.41;;;1.66;100.00
47240;BME280;32978;53.586;10.052;2023-01-29T00:56:21;102610.78;;;1.62;100.00
47240;BME280;32978;53.586;10.052;2023-01-29T01:01:18;102624.88;;;1.64;100.00
47240;BME280;32978;53.586;10.052;2023-01-29T01:06:39;102621.75;;;1.67;100.00
47240;BME280;32978;53.586;10.052;2023-01-29T01:11:36;102627.16;;;1.67;100.00
47240;BME280;32978;53.586;10.052;2023-01-29T01:16:32;102629.66;;;1.68;100.00
47240;BME280;32978;53.586;10.052;2023-01-29T01:21:29;102627.13;;;1.74;100.00
47240;BME280;32978;53.586;10.052;2023-01-29T01:26:25;102622.16;;;1.77;100.00
47240;BME280;32978;53.586;10.052;2023-01-29T01:31:22;102630.25;;;1.77;100.00
47240;BME280;32978;53.586;10.052;2023-01-29T01:36:19;102635.84;;;1.82;100.00
47240;BME280;32978;53.586;10.052;2023-01-29T01:41:18;102633.13;;;1.82;100.00
47240;BME280;32978;53.586;10.052;2023-01-29T01:46:15;102630.88;;;1.79;100.00
47240;BME280;32978;53.586;10.052;2023-01-29T01:51:12;102619.47;;;1.77;100.00
47240;BME280;32978;53.586;10.052;2023-01-29T01:56:13;102623.81;;;1.78;100.00
47240;BME280;32978;53.586;10.052;2023-01-29T02:01:12;102632.94;;;1.84;100.00
47240;BME280;32978;53.586;10.052;2023-01-29T02:06:09;102616.53;;;1.85;100.00
47240;BME280;32978;53.586;10.052;2023-01-29T02:11:25;102613.81;;;1.85;100.00
47240;BME280;32978;53.586;10.052;2023-01-29T02:16:22;102615.06;;;1.89;100.00
47240;BME280;32978;53.586;10.052;2023-01-29T02:21:35;102598.50;;;1.86;100.00
47240;BME280;32978;53.586;10.052;2023-01-29T02:31:51;102599.31;;;1.86;100.00
47240;BME280;32978;53.586;10.052;2023-01-29T02:37:02;102590.16;;;1.87;100.00
47240;BME280;32978;53.586;10.052;2023-01-29T02:42:11;102601.38;;;1.84;100.00
47240;BME280;32978;53.586;10.052;2023-01-29T02:47:16;102587.47;;;1.87;100.00
47240;BME280;32978;53.586;10.052;2023-01-29T02:57:25;102571.06;;;1.96;100.00
47240;BME280;32978;53.586;10.052;2023-01-29T03:02:40;102559.03;;;1.92;100.00
47240;BME280;32978;53.586;10.052;2023-01-29T03:07:40;102542.19;;;1.96;100.00
47240;BME280;32978;53.586;10.052;2023-01-29T03:12:41;102548.22;;;1.92;100.00
47240;BME280;32978;53.586;10.052;2023-01-29T03:17:48;102534.31;;;1.95;100.00
47240;BME280;32978;53.586;10.052;2023-01-29T03:22:51;102539.09;;;1.93;100.00
47240;BME280;32978;53.586;10.052;2023-01-29T03:27:54;102527.88;;;1.96;100.00
47240;BME280;32978;53.586;10.052;2023-01-29T03:33:12;102526.63;;;1.98;100.00
47240;BME280;32978;53.586;10.052;2023-01-29T03:38:12;102513.75;;;2.00;100.00
47240;BME280;32978;53.586;10.052;2023-01-29T03:53:49;102522.44;;;2.09;100.00
47240;BME280;32978;53.586;10.052;2023-01-29T03:58:56;102506.66;;;2.06;100.00
47240;BME280;32978;53.586;10.052;2023-01-29T04:04:00;102504.56;;;2.08;100.00
47240;BME280;32978;53.586;10.052;2023-01-29T04:09:15;102492.53;;;2.04;100.00
47240;BME280;32978;53.586;10.052;2023-01-29T04:14:15;102487.75;;;2.06;100.00
47240;BME280;32978;53.586;10.052;2023-01-29T04:19:13;102495.06;;;1.99;100.00
47240;BME280;32978;53.586;10.052;2023-01-29T04:24:11;102493.59;;;2.03;100.00
47240;BME280;32978;53.586;10.052;2023-01-29T04:39:30;102490.53;;;1.93;100.00
47240;BME280;32978;53.586;10.052;2023-01-29T04:50:20;102511.53;;;1.91;100.00
47240;BME280;32978;53.586;10.052;2023-01-29T04:55:35;102510.28;;;1.86;100.00
47240;BME280;32978;53.586;10.052;2023-01-29T05:00:39;102513.44;;;1.83;100.00
47240;BME280;32978;53.586;10.052;2023-01-29T05:05:40;102507.63;;;1.80;100.00
47240;BME280;32978;53.586;10.052;2023-01-29T05:10:38;102497.66;;;1.80;100.00
47240;BME280;32978;53.586;10.052;2023-01-29T05:15:40;102493.94;;;1.81;100.00
47240;BME280;32978;53.586;10.052;2023-01-29T05:20:40;102483.38;;;1.73;100.00
47240;BME280;32978;53.586;10.052;2023-01-29T05:25:37;102475.28;;;1.73;100.00
47240;BME280;32978;53.586;10.052;2023-01-29T05:30:36;102499.38;;;1.68;100.00
47240;BME280;32978;53.586;10.052;2023-01-29T05:35:33;102486.94;;;1.67;100.00
47240;BME280;32978;53.586;10.052;2023-01-29T05:40:30;102475.72;;;1.70;100.00
47240;BME280;32978;53.586;10.052;2023-01-29T05:45:26;102470.75;;;1.67;100.00
47240;BME280;32978;53.586;10.052;2023-01-29T05:50:23;102479.44;;;1.69;100.00
47240;BME280;32978;53.586;10.052;2023-01-29T05:55:20;102480.94;;;1.65;100.00
47240;BME280;32978;53.586;10.052;2023-01-29T06:00:16;102485.91;;;1.68;100.00
47240;BME280;32978;53.586;10.052;2023-01-29T06:05:13;102489.44;;;1.62;100.00
47240;BME280;32978;53.586;10.052;2023-01-29T06:10:15;102466.28;;;1.47;100.00
47240;BME280;32978;53.586;10.052;2023-01-29T06:15:12;102471.63;;;1.61;100.00
47240;BME280;32978;53.586;10.052;2023-01-29T06:20:11;102443.88;;;1.54;100.00
47240;BME280;32978;53.586;10.052;2023-01-29T06:25:07;102449.66;;;1.51;100.00
47240;BME280;32978;53.586;10.052;2023-01-29T06:30:05;102442.00;;;1.54;100.00
47240;BME280;32978;53.586;10.052;2023-01-29T06:35:01;102428.91;;;1.58;100.00
47240;BME280;32978;53.586;10.052;2023-01-29T06:39:58;102411.53;;;1.54;100.00
47240;BME280;32978;53.586;10.052;2023-01-29T06:44:55;102403.25;;;1.49;100.00
47240;BME280;32978;53.586;10.052;2023-01-29T06:49:51;102418.56;;;1.55;100.00
47240;BME280;32978;53.586;10.052;2023-01-29T06:54:48;102406.91;;;1.61;100.00
47240;BME280;32978;53.586;10.052;2023-01-29T06:59:44;102400.63;;;1.67;100.00
47240;BME280;32978;53.586;10.052;2023-01-29T07:04:41;102398.97;;;1.73;100.00
47240;BME280;32978;53.586;10.052;2023-01-29T07:09:41;102391.03;;;1.78;100.00
47240;BME280;32978;53.586;10.052;2023-01-29T07:14:38;102400.72;;;1.85;100.00
47240;BME280;32978;53.586;10.052;2023-01-29T07:19:34;102408.81;;;1.85;100.00
47240;BME280;32978;53.586;10.052;2023-01-29T07:24:31;102408.41;;;1.88;100.00
47240;BME280;32978;53.586;10.052;2023-01-29T07:29:27;102404.69;;;1.83;100.00
47240;BME280;32978;53.586;10.052;2023-01-29T07:34:24;102381.50;;;1.75;100.00
47240;BME280;32978;53.586;10.052;2023-01-29T07:39:20;102369.94;;;1.68;100.00
47240;BME280;32978;53.586;10.052;2023-01-29T07:44:17;102356.72;;;1.60;100.00
47240;BME280;32978;53.586;10.052;2023-01-29T07:49:14;102348.91;;;1.52;100.00
47240;BME280;32978;53.586;10.052;2023-01-29T07:54:10;102367.16;;;1.50;100.00
47240;BME280;32978;53.586;10.052;2023-01-29T07:59:07;102362.63;;;1.43;100.00
47240;BME280;32978;53.586;10.052;2023-01-29T08:04:03;102369.50;;;1.39;100.00
47240;BME280;32978;53.586;10.052;2023-01-29T08:09:00;102360.56;;;1.39;100.00
47240;BME280;32978;53.586;10.052;2023-01-29T08:13:56;102358.91;;;1.44;100.00
47240;BME280;32978;53.586;10.052;2023-01-29T08:18:54;102353.84;;;1.55;100.00
47240;BME280;32978;53.586;10.052;2023-01-29T08:23:50;102357.78;;;1.59;100.00
47240;BME280;32978;53.586;10.052;2023-01-29T08:28:47;102355.25;;;1.64;100.00
47240;BME280;32978;53.586;10.052;2023-01-29T08:33:43;102353.78;;;1.68;100.00
47240;BME280;32978;53.586;10.052;2023-01-29T08:38:40;102350.00;;;1.69;100.00
47240;BME280;32978;53.586;10.052;2023-01-29T08:43:36;102348.53;;;1.73;100.00
47240;BME280;32978;53.586;10.052;2023-01-29T08:48:34;102355.78;;;1.79;100.00
47240;BME280;32978;53.586;10.052;2023-01-29T08:53:31;102355.16;;;1.77;100.00
47240;BME280;32978;53.586;10.052;2023-01-29T08:58:28;102349.47;;;1.85;100.00
47240;BME280;32978;53.586;10.052;2023-01-29T09:03:24;102348.81;;;1.90;100.00
47240;BME280;32978;53.586;10.052;2023-01-29T09:08:21;102356.09;;;1.89;100.00
47240;BME280;32978;53.586;10.052;2023-01-29T09:13:17;102354.47;;;1.88;100.00
47240;BME280;32978;53.586;10.052;2023-01-29T09:18:14;102353.13;;;1.98;100.00
47240;BME280;32978;53.586;10.052;2023-01-29T09:23:10;102348.06;;;2.08;100.00
47240;BME280;32978;53.586;10.052;2023-01-29T09:28:07;102350.97;;;2.06;100.00
47240;BME280;32978;53.586;10.052;2023-01-29T09:33:04;102336.75;;;2.18;100.00
47240;BME280;32978;53.586;10.052;2023-01-29T09:38:01;102336.16;;;2.16;100.00
47240;BME280;32978;53.586;10.052;2023-01-29T09:43:02;102336.53;;;2.19;100.00
47240;BME280;32978;53.586;10.052;2023-01-29T09:48:01;102336.53;;;2.19;100.00
47240;BME280;32978;53.586;10.052;2023-01-29T09:53:10;102323.06;;;2.19;100.00
47240;BME280;32978;53.586;10.052;2023-01-29T09:58:19;102307.53;;;2.15;100.00
47240;BME280;32978;53.586;10.052;2023-01-29T10:08:59;102281.50;;;2.20;100.00
47240;BME280;32978;53.586;10.052;2023-01-29T10:25:10;102266.53;;;2.24;100.00
47240;BME280;32978;53.586;10.052;2023-01-29T10:30:32;102273.13;;;2.28;100.00
47240;BME280;32978;53.586;10.052;2023-01-29T10:35:42;102255.28;;;2.27;100.00
47240;BME280;32978;53.586;10.052;2023-01-29T10:46:25;102241.94;;;2.33;100.00
47240;BME280;32978;53.586;10.052;2023-01-29T10:51:43;102239.94;;;2.28;100.00
47240;BME280;32978;53.586;10.052;2023-01-29T11:01:58;102226.56;;;2.33;100.00
47240;BME280;32978;53.586;10.052;2023-01-29T11:06:55;102219.91;;;2.36;100.00
47240;BME280;32978;53.586;10.052;2023-01-29T11:11:56;102207.75;;;2.45;100.00
47240;BME280;32978;53.586;10.052;2023-01-29T11:16:54;102208.94;;;2.49;100.00
47240;BME280;32978;53.586;10.052;2023-01-29T11:21:58;102211.78;;;2.54;100.00
47240;BME280;32978;53.586;10.052;2023-01-29T11:26:57;102194.56;;;2.67;100.00
47240;BME280;32978;53.586;10.052;2023-01-29T11:31:55;102194.81;;;2.65;100.00
47240;BME280;32978;53.586;10.052;2023-01-29T11:37:01;102173.81;;;2.67;100.00
47240;BME280;32978;53.586;10.052;2023-01-29T11:42:00;102184.16;;;2.70;100.00
47240;BME280;32978;53.586;10.052;2023-01-29T11:52:09;102145.41;;;2.77;100.00
47240;BME280;32978;53.586;10.052;2023-01-29T11:57:29;102138.44;;;2.69;100.00
47240;BME280;32978;53.586;10.052;2023-01-29T12:02:34;102127.09;;;2.79;100.00
47240;BME280;32978;53.586;10.052;2023-01-29T12:07:32;102119.56;;;2.81;100.00
47240;BME280;32978;53.586;10.052;2023-01-29T12:12:39;102109.84;;;2.80;100.00
47240;BME280;32978;53.586;10.052;2023-01-29T12:17:37;102098.44;;;2.78;100.00
47240;BME280;32978;53.586;10.052;2023-01-29T12:27:45;102090.31;;;2.66;100.00
47240;BME280;32978;53.586;10.052;2023-01-29T12:32:58;102079.59;;;2.59;100.00
47240;BME280;32978;53.586;10.052;2023-01-29T12:38:21;102080.31;;;2.66;100.00
47240;BME280;32978;53.586;10.052;2023-01-29T12:43:23;102069.28;;;2.56;100.00
47240;BME280;32978;53.586;10.052;2023-01-29T12:48:30;102059.63;;;2.48;100.00
47240;BME280;32978;53.586;10.052;2023-01-29T12:53:40;102043.19;;;2.50;100.00
47240;BME280;32978;53.586;10.052;2023-01-29T12:58:44;102037.34;;;2.53;100.00
47240;BME280;32978;53.586;10.052;2023-01-29T13:03:56;102025.59;;;2.59;100.00
47240;BME280;32978;53.586;10.052;2023-01-29T13:08:57;102006.25;;;2.62;100.00
47240;BME280;32978;53.586;10.052;2023-01-29T13:14:00;102010.09;;;2.66;100.00
47240;BME280;32978;53.586;10.052;2023-01-29T13:19:08;102000.00;;;2.73;100.00
47240;BME280;32978;53.586;10.052;2023-01-29T13:24:13;101991.31;;;2.71;100.00
47240;BME280;32978;53.586;10.052;2023-01-29T13:29:22;101987.56;;;2.72;100.00
47240;BME280;32978;53.586;10.052;2023-01-29T13:34:28;101981.25;;;2.79;100.00
47240;BME280;32978;53.586;10.052;2023-01-29T13:39:32;101986.28;;;2.75;100.00
47240;BME280;32978;53.586;10.052;2023-01-29T13:44:34;101985.47;;;2.74;100.00
47240;BME280;32978;53.586;10.052;2023-01-29T13:49:34;101973.97;;;2.79;100.00
47240;BME280;32978;53.586;10.052;2023-01-29T13:54:31;101968.66;;;2.84;100.00
47240;BME280;32978;53.586;10.052;2023-01-29T13:59:52;101949.16;;;2.82;100.00
47240;BME280;32978;53.586;10.052;2023-01-29T14:04:50;101953.50;;;2.71;100.00
47240;BME280;32978;53.586;10.052;2023-01-29T14:19:48;101925.56;;;2.54;100.00
47240;BME280;32978;53.586;10.052;2023-01-29T14:24:46;101928.06;;;2.56;100.00
47240;BME280;32978;53.586;10.052;2023-01-29T14:29:43;101914.78;;;2.54;100.00
47240;BME280;32978;53.586;10.052;2023-01-29T14:34:50;101902.91;;;2.55;100.00
47240;BME280;32978;53.586;10.052;2023-01-29T14:39:52;101904.44;;;2.63;100.00
47240;BME280;32978;53.586;10.052;2023-01-29T14:49:51;101887.28;;;2.69;100.00
47240;BME280;32978;53.586;10.052;2023-01-29T14:54:49;101890.00;;;2.69;100.00
47240;BME280;32978;53.586;10.052;2023-01-29T14:59:53;101881.56;;;2.65;100.00
47240;BME280;32978;53.586;10.052;2023-01-29T15:04:55;101879.69;;;2.54;100.00
47240;BME280;32978;53.586;10.052;2023-01-29T15:10:48;101869.69;;;2.55;100.00
47240;BME280;32978;53.586;10.052;2023-01-29T15:15:48;101867.09;;;2.48;100.00
47240;BME280;32978;53.586;10.052;2023-01-29T15:20:47;101880.59;;;2.48;100.00
47240;BME280;32978;53.586;10.052;2023-01-29T15:25:48;101865.13;;;2.43;100.00
47240;BME280;32978;53.586;10.052;2023-01-29T15:30:51;101863.38;;;2.49;100.00
47240;BME280;32978;53.586;10.052;2023-01-29T15:35:55;101831.31;;;2.41;100.00
47240;BME280;32978;53.586;10.052;2023-01-29T15:46:20;101823.59;;;2.44;100.00
47240;BME280;32978;53.586;10.052;2023-01-29T15:51:23;101814.53;;;2.39;100.00
47240;BME280;32978;53.586;10.052;2023-01-29T15:56:24;101804.91;;;2.43;100.00
47240;BME280;32978;53.586;10.052;2023-01-29T16:01:27;101792.50;;;2.42;100.00
47240;BME280;32978;53.586;10.052;2023-01-29T16:06:23;101794.13;;;2.43;100.00
47240;BME280;32978;53.586;10.052;2023-01-29T16:11:20;101799.50;;;2.43;100.00
47240;BME280;32978;53.586;10.052;2023-01-29T16:16:23;101789.19;;;2.40;100.00
47240;BME280;32978;53.586;10.052;2023-01-29T16:21:34;101777.59;;;2.39;100.00
47240;BME280;32978;53.586;10.052;2023-01-29T16:26:34;101778.63;;;2.38;100.00
47240;BME280;32978;53.586;10.052;2023-01-29T16:31:32;101780.50;;;2.38;100.00
47240;BME280;32978;53.586;10.052;2023-01-29T16:36:29;101775.94;;;2.38;100.00
47240;BME280;32978;53.586;10.052;2023-01-29T16:41:31;101758.91;;;2.38;100.00
47240;BME280;32978;53.586;10.052;2023-01-29T16:46:36;101771.34;;;2.39;100.00
47240;BME280;32978;53.586;10.052;2023-01-29T16:51:37;101762.22;;;2.40;100.00
47240;BME280;32978;53.586;10.052;2023-01-29T16:56:35;101736.28;;;2.27;100.00
47240;BME280;32978;53.586;10.052;2023-01-29T17:01:34;101733.25;;;2.23;100.00
47240;BME280;32978;53.586;10.052;2023-01-29T17:06:32;101731.38;;;2.24;100.00
47240;BME280;32978;53.586;10.052;2023-01-29T17:11:33;101716.00;;;2.24;100.00
47240;BME280;32978;53.586;10.052;2023-01-29T17:16:33;101704.59;;;2.22;100.00
47240;BME280;32978;53.586;10.052;2023-01-29T17:21:30;101709.78;;;2.24;100.00
47240;BME280;32978;53.586;10.052;2023-01-29T17:26:29;101712.25;;;2.25;100.00
47240;BME280;32978;53.586;10.052;2023-01-29T17:31:26;101704.50;;;2.17;100.00
47240;BME280;32978;53.586;10.052;2023-01-29T17:36:23;101691.50;;;2.14;100.00
47240;BME280;32978;53.586;10.052;2023-01-29T17:41:27;101683.41;;;2.14;100.00
47240;BME280;32978;53.586;10.052;2023-01-29T17:46:25;101670.97;;;2.13;100.00
47240;BME280;32978;53.586;10.052;2023-01-29T17:51:23;101672.97;;;2.06;100.00
47240;BME280;32978;53.586;10.052;2023-01-29T17:56:23;101653.50;;;2.04;100.00
47240;BME280;32978;53.586;10.052;2023-01-29T18:01:23;101660.91;;;1.97;100.00
47240;BME280;32978;53.586;10.052;2023-01-29T18:06:27;101644.38;;;1.93;100.00
47240;BME280;32978;53.586;10.052;2023-01-29T18:11:24;101641.44;;;1.95;100.00
47240;BME280;32978;53.586;10.052;2023-01-29T18:16:21;101636.53;;;1.92;100.00
47240;BME280;32978;53.586;10.052;2023-01-29T18:21:18;101616.94;;;1.96;100.00
47240;BME280;32978;53.586;10.052;2023-01-29T18:26:15;101605.91;;;1.98;100.00
47240;BME280;32978;53.586;10.052;2023-01-29T18:31:11;101587.50;;;1.95;100.00
47240;BME280;32978;53.586;10.052;2023-01-29T18:36:10;101585.88;;;1.94;100.00
47240;BME280;32978;53.586;10.052;2023-01-29T18:41:08;101576.13;;;1.93;100.00
47240;BME280;32978;53.586;10.052;2023-01-29T18:46:08;101570.16;;;1.91;100.00
47240;BME280;32978;53.586;10.052;2023-01-29T18:51:04;101554.72;;;1.86;100.00
47240;BME280;32978;53.586;10.052;2023-01-29T18:56:04;101546.94;;;1.89;100.00
47240;BME280;32978;53.586;10.052;2023-01-29T19:01:01;101525.38;;;1.89;100.00
47240;BME280;32978;53.586;10.052;2023-01-29T19:06:03;101514.56;;;1.89;100.00
47240;BME280;32978;53.586;10.052;2023-01-29T19:11:00;101522.75;;;1.95;100.00
47240;BME280;32978;53.586;10.052;2023-01-29T19:15:59;101510.66;;;1.97;100.00
47240;BME280;32978;53.586;10.052;2023-01-29T19:20:56;101511.97;;;1.95;100.00
47240;BME280;32978;53.586;10.052;2023-01-29T19:25:56;101490.88;;;1.92;100.00
47240;BME280;32978;53.586;10.052;2023-01-29T19:30:56;101489.25;;;1.91;100.00
47240;BME280;32978;53.586;10.052;2023-01-29T19:35:59;101480.09;;;1.92;100.00
47240;BME280;32978;53.586;10.052;2023-01-29T19:40:58;101467.19;;;1.94;100.00
47240;BME280;32978;53.586;10.052;2023-01-29T19:45:57;101460.25;;;1.98;100.00
47240;BME280;32978;53.586;10.052;2023-01-29T19:51:00;101477.50;;;1.97;100.00
47240;BME280;32978;53.586;10.052;2023-01-29T19:56:08;101434.34;;;1.97;100.00
47240;BME280;32978;53.586;10.052;2023-01-29T20:01:11;101446.78;;;1.98;100.00
47240;BME280;32978;53.586;10.052;2023-01-29T20:06:07;101433.75;;;1.95;100.00
47240;BME280;32978;53.586;10.052;2023-01-29T20:11:04;101433.75;;;1.95;100.00
47240;BME280;32978;53.586;10.052;2023-01-29T20:16:01;101425.66;;;1.95;100.00
47240;BME280;32978;53.586;10.052;2023-01-29T20:21:15;101424.03;;;1.94;100.00
47240;BME280;32978;53.586;10.052;2023-01-29T20:26:14;101417.50;;;1.89;100.00
47240;BME280;32978;53.586;10.052;2023-01-29T20:31:11;101415.38;;;1.92;100.00
47240;BME280;32978;53.586;10.052;2023-01-29T20:36:09;101419.16;;;1.91;100.00
47240;BME280;32978;53.586;10.052;2023-01-29T20:41:07;101389.56;;;1.96;100.00
47240;BME280;32978;53.586;10.052;2023-01-29T20:46:04;101390.13;;;1.98;100.00
47240;BME280;32978;53.586;10.052;2023-01-29T20:51:08;101363.75;;;2.00;100.00
47240;BME280;32978;53.586;10.052;2023-01-29T20:56:08;101362.09;;;1.99;100.00
47240;BME280;32978;53.586;10.052;2023-01-29T21:01:11;101349.19;;;2.01;100.00
47240;BME280;32978;53.586;10.052;2023-01-29T21:06:09;101343.28;;;2.04;100.00
47240;BME280;32978;53.586;10.052;2023-01-29T21:11:07;101316.88;;;2.06;100.00
47240;BME280;32978;53.586;10.052;2023-01-29T21:16:04;101316.66;;;2.07;100.00
47240;BME280;32978;53.586;10.052;2023-01-29T21:21:01;101307.81;;;2.12;100.00
47240;BME280;32978;53.586;10.052;2023-01-29T21:26:02;101312.25;;;2.18;100.00
47240;BME280;32978;53.586;10.052;2023-01-29T21:31:03;101300.44;;;2.24;100.00
47240;BME280;32978;53.586;10.052;2023-01-29T21:36:01;101287.84;;;2.30;100.00
47240;BME280;32978;53.586;10.052;2023-01-29T21:41:05;101268.69;;;2.31;100.00
47240;BME280;32978;53.586;10.052;2023-01-29T21:46:03;101259.56;;;2.33;100.00
47240;BME280;32978;53.586;10.052;2023-01-29T21:51:01;101257.97;;;2.37;100.00
47240;BME280;32978;53.586;10.052;2023-01-29T21:56:02;101239.97;;;2.42;100.00
47240;BME280;32978;53.586;10.052;2023-01-29T22:00:59;101246.25;;;2.48;100.00
47240;BME280;32978;53.586;10.052;2023-01-29T22:06:16;101226.84;;;2.51;100.00
47240;BME280;32978;53.586;10.052;2023-01-29T22:11:12;101238.53;;;2.57;100.00
47240;BME280;32978;53.586;10.052;2023-01-29T22:16:09;101227.44;;;2.53;100.00
47240;BME280;32978;53.586;10.052;2023-01-29T22:21:05;101186.00;;;2.42;100.00
47240;BME280;32978;53.586;10.052;2023-01-29T22:26:03;101164.84;;;2.34;100.00
47240;BME280;32978;53.586;10.052;2023-01-29T22:31:01;101185.03;;;2.31;100.00
47240;BME280;32978;53.586;10.052;2023-01-29T22:35:58;101182.91;;;2.34;100.00
47240;BME280;32978;53.586;10.052;2023-01-29T22:40:55;101165.66;;;2.35;100.00
47240;BME280;32978;53.586;10.052;2023-01-29T22:45:52;101169.66;;;2.32;100.00
47240;BME280;32978;53.586;10.052;2023-01-29T22:50:55;101165.00;;;2.27;100.00
47240;BME280;32978;53.586;10.052;2023-01-29T22:56:05;101136.97;;;2.28;100.00
47240;BME280;32978;53.586;10.052;2023-01-29T23:01:02;101116.44;;;2.27;100.00
47240;BME280;32978;53.586;10.052;2023-01-29T23:05:59;101078.13;;;2.25;100.00
47240;BME280;32978;53.586;10.052;2023-01-29T23:10:55;101102.94;;;2.27;100.00
47240;BME280;32978;53.586;10.052;2023-01-29T23:16:08;101057.59;;;2.24;100.00
47240;BME280;32978;53.586;10.052;2023-01-29T23:21:05;101043.06;;;2.25;100.00
47240;BME280;32978;53.586;10.052;2023-01-29T23:26:03;101016.88;;;2.26;100.00
47240;BME280;32978;53.586;10.052;2023-01-29T23:31:18;100999.63;;;2.27;100.00
47240;BME280;32978;53.586;10.052;2023-01-29T23:36:15;100993.97;;;2.28;100.00
47240;BME280;32978;53.586;10.052;2023-01-29T23:41:12;100981.84;;;2.31;100.00
47240;BME280;32978;53.586;10.052;2023-01-29T23:46:09;100985.13;;;2.33;100.00
47240;BME280;32978;53.586;10.052;2023-01-29T23:51:05;100950.06;;;2.38;100.00
47240;BME280;32978;53.586;10.052;2023-01-29T23:56:03;100961.19;;;2.42;100.00
